Time;durP1;ratioP1;P1;durP2;ratioP2;P2;SDS_P1;SDS_P2;PMS_P1;PMS_P2;Temp;Humidity;BMP_temperature;BMP_pressure;BME280_temperature;BME280_humidity;BME280_pressure;Samples;Min_cycle;Max_cycle;Signal;HPM_P1;HPM_P2
2021/08/28 00:01:03;;;;;;;5.70;3.95;;;;;;;;;;4979036;28;20055;-84
2021/08/28 00:03:30;;;;;;;5.65;4.18;;;;;;;;;;4979305;28;20074;-84
2021/08/28 00:05:57;;;;;;;6.88;4.47;;;;;;;;;;4978557;28;20046;-84
2021/08/28 00:08:24;;;;;;;6.35;4.00;;;;;;;;;;4979319;28;20046;-85
2021/08/28 00:10:51;;;;;;;6.10;4.25;;;;;;;;;;4979334;28;20078;-85
2021/08/28 00:13:17;;;;;;;6.65;4.15;;;;;;;;;;4982299;28;20078;-85
2021/08/28 00:15:45;;;;;;;5.95;4.03;;;;;;;;;;4981169;28;20055;-85
2021/08/28 00:18:12;;;;;;;6.45;4.07;;;;;;;;;;4987794;28;20046;-85
2021/08/28 00:20:40;;;;;;;6.38;4.40;;;;;;;;;;4984693;28;20182;-84
2021/08/28 00:23:08;;;;;;;5.95;3.80;;;;;;;;;;4984892;28;20047;-84
2021/08/28 00:25:36;;;;;;;5.30;3.70;;;;;;;;;;4996453;28;20106;-83
2021/08/28 00:28:04;;;;;;;7.68;5.10;;;;;;;;;;4997204;28;20118;-83
2021/08/28 00:30:31;;;;;;;5.15;3.58;;;;;;;;;;4997303;28;20042;-83
2021/08/28 00:33:08;;;;;;;5.35;4.07;;;;;;;;;;4997363;28;20066;-83
2021/08/28 00:35:35;;;;;;;5.15;3.63;;;;;;;;;;4996579;28;20051;-83
2021/08/28 00:38:02;;;;;;;6.35;3.97;;;;;;;;;;4983676;28;20051;-84
2021/08/28 00:40:28;;;;;;;5.68;3.95;;;;;;;;;;4983773;28;20077;-84
2021/08/28 00:42:55;;;;;;;5.75;4.05;;;;;;;;;;4986447;28;20475;-84
2021/08/28 00:45:23;;;;;;;5.47;3.50;;;;;;;;;;4989395;28;20055;-84
2021/08/28 00:47:51;;;;;;;5.80;3.88;;;;;;;;;;4991836;28;20070;-86
2021/08/28 00:50:21;;;;;;;5.60;3.08;;;;;;;;;;4990954;28;20050;-84
2021/08/28 00:52:48;;;;;;;4.93;3.38;;;;;;;;;;4984698;28;20050;-84
2021/08/28 00:55:15;;;;;;;5.00;3.38;;;;;;;;;;4983296;28;20114;-84
2021/08/28 00:57:42;;;;;;;5.28;3.50;;;;;;;;;;4983127;28;20067;-85
2021/08/28 01:00:09;;;;;;;5.40;3.10;;;;;;;;;;4982632;28;20047;-85
2021/08/28 01:06:06;;;;;;;4.80;3.22;;;;;;;;;;4990821;28;20046;-85
2021/08/28 01:08:38;;;;;;;6.00;2.80;;;;;;;;;;4988142;28;20051;-84
2021/08/28 01:11:13;;;;;;;6.22;3.92;;;;;;;;;;4985461;28;20488;-84
2021/08/28 01:13:53;;;;;;;7.53;3.80;;;;;;;;;;4984962;28;20061;-86
2021/08/28 01:16:27;;;;;;;6.57;3.67;;;;;;;;;;4985673;28;20047;-84
2021/08/28 01:19:01;;;;;;;5.85;3.65;;;;;;;;;;4987066;28;20046;-84
2021/08/28 01:21:50;;;;;;;5.90;3.33;;;;;;;;;;4987961;28;20054;-85
2021/08/28 01:24:25;;;;;;;5.80;3.47;;;;;;;;;;4984537;28;20070;-85
2021/08/28 01:27:11;;;;;;;5.68;3.42;;;;;;;;;;4981902;28;20050;-85
2021/08/28 01:29:39;;;;;;;7.85;4.20;;;;;;;;;;4982297;28;20515;-85
2021/08/28 01:32:28;;;;;;;6.00;3.88;;;;;;;;;;4979724;28;20051;-85
2021/08/28 01:35:13;;;;;;;7.35;4.35;;;;;;;;;;4977442;28;20512;-85
2021/08/28 01:37:53;;;;;;;7.88;3.72;;;;;;;;;;4978446;28;20051;-86
2021/08/28 01:40:23;;;;;;;6.70;3.88;;;;;;;;;;4978365;28;20043;-85
2021/08/28 01:42:54;;;;;;;;;;;;;;;;;;4977617;28;20491;-86
2021/08/28 01:45:26;;;;;;;;;;;;;;;;;;4977315;28;19936;-85
2021/08/28 01:47:53;;;;;;;5.32;3.70;;;;;;;;;;4976529;28;20403;-86
2021/08/28 01:50:23;;;;;;;6.93;4.00;;;;;;;;;;4976442;28;20062;-86
2021/08/28 01:52:51;;;;;;;6.45;3.58;;;;;;;;;;4975745;28;20054;-86
2021/08/28 01:55:19;;;;;;;6.10;4.38;;;;;;;;;;4973780;28;20562;-86
2021/08/28 01:57:46;;;;;;;6.60;3.50;;;;;;;;;;4975952;28;20142;-85
2021/08/28 02:00:14;;;;;;;5.72;4.20;;;;;;;;;;4975759;28;20495;-86
2021/08/28 02:02:42;;;;;;;5.78;3.70;;;;;;;;;;4975936;28;20053;-86
2021/08/28 02:05:13;;;;;;;6.60;4.25;;;;;;;;;;4975166;28;20050;-86
2021/08/28 02:07:50;;;;;;;6.32;3.90;;;;;;;;;;4976126;28;20082;-85
2021/08/28 02:10:22;;;;;;;5.82;3.92;;;;;;;;;;4975941;28;20055;-85
2021/08/28 02:12:53;;;;;;;5.70;3.85;;;;;;;;;;4980830;28;20483;-86
2021/08/28 02:15:22;;;;;;;6.07;4.05;;;;;;;;;;4994182;28;20126;-86
2021/08/28 02:18:01;;;;;;;6.22;3.88;;;;;;;;;;4995042;28;20410;-86
2021/08/28 02:20:31;;;;;;;6.10;3.70;;;;;;;;;;4994999;28;20084;-84
2021/08/28 02:23:04;;;;;;;6.13;3.88;;;;;;;;;;4995419;28;20074;-86
2021/08/28 02:25:34;;;;;;;7.20;4.53;;;;;;;;;;4994512;28;20061;-84
2021/08/28 02:28:04;;;;;;;6.78;4.78;;;;;;;;;;4995230;28;20500;-85
2021/08/28 02:30:32;;;;;;;6.53;4.20;;;;;;;;;;4995075;28;20046;-86
2021/08/28 02:33:03;;;;;;;6.88;4.50;;;;;;;;;;4995326;28;20498;-86
2021/08/28 02:35:31;;;;;;;6.95;4.80;;;;;;;;;;4994005;28;20046;-86
2021/08/28 02:38:01;;;;;;;5.68;3.88;;;;;;;;;;4994782;28;20058;-86
2021/08/28 02:40:29;;;;;;;7.60;4.47;;;;;;;;;;4995136;28;20105;-86
2021/08/28 02:42:57;;;;;;;6.28;4.50;;;;;;;;;;5012451;28;20047;-85
2021/08/28 02:45:27;;;;;;;6.75;4.70;;;;;;;;;;5011460;28;20054;-85
2021/08/28 02:47:54;;;;;;;6.82;3.85;;;;;;;;;;5010123;28;20069;-85
2021/08/28 02:50:25;;;;;;;7.72;4.85;;;;;;;;;;5001650;28;20046;-86
2021/08/28 02:52:53;;;;;;;;;;;;;;;;;;4996720;28;20060;-86
2021/08/28 02:55:20;;;;;;;8.32;4.72;;;;;;;;;;4994001;28;19922;-85
2021/08/28 02:57:53;;;;;;;6.32;4.35;;;;;;;;;;4994586;28;20042;-86
2021/08/28 03:00:23;;;;;;;6.82;4.85;;;;;;;;;;4994366;28;20053;-85
2021/08/28 03:02:51;;;;;;;6.70;4.78;;;;;;;;;;4983767;28;20512;-85
2021/08/28 03:05:18;;;;;;;7.35;5.28;;;;;;;;;;4982920;28;20057;-84
2021/08/28 03:07:47;;;;;;;6.93;4.25;;;;;;;;;;4998332;28;20038;-83
2021/08/28 03:10:15;;;;;;;6.30;3.88;;;;;;;;;;4998359;28;20042;-84
2021/08/28 03:12:43;;;;;;;7.07;5.00;;;;;;;;;;5002661;28;20050;-83
2021/08/28 03:15:12;;;;;;;7.15;4.05;;;;;;;;;;5007158;28;20488;-84
2021/08/28 03:17:43;;;;;;;6.55;4.45;;;;;;;;;;4994689;28;20492;-85
2021/08/28 03:20:13;;;;;;;7.15;4.53;;;;;;;;;;4994007;28;20066;-85
2021/08/28 03:22:42;;;;;;;7.20;4.30;;;;;;;;;;4994004;28;20524;-84
2021/08/28 03:25:11;;;;;;;6.25;4.72;;;;;;;;;;4992857;28;20058;-85
2021/08/28 03:27:41;;;;;;;6.25;4.20;;;;;;;;;;4993902;28;20047;-85
2021/08/28 03:30:12;;;;;;;7.83;4.37;;;;;;;;;;4993800;28;20054;-85
2021/08/28 03:32:42;;;;;;;6.95;4.82;;;;;;;;;;4993843;28;20296;-85
2021/08/28 03:35:10;;;;;;;6.00;4.03;;;;;;;;;;4992815;28;20096;-84
2021/08/28 03:37:38;;;;;;;7.18;4.40;;;;;;;;;;4993392;28;20054;-84
2021/08/28 03:40:07;;;;;;;8.40;4.32;;;;;;;;;;4993784;28;20050;-84
2021/08/28 03:42:38;;;;;;;6.40;3.78;;;;;;;;;;4993611;28;20062;-84
2021/08/28 03:45:06;;;;;;;8.07;4.53;;;;;;;;;;4992792;28;20058;-84
2021/08/28 03:47:33;;;;;;;6.75;4.20;;;;;;;;;;4993315;28;20506;-84
2021/08/28 03:50:00;;;;;;;6.45;4.30;;;;;;;;;;4994871;28;20142;-84
2021/08/28 03:52:26;;;;;;;6.10;4.18;;;;;;;;;;4994856;28;20046;-84
2021/08/28 03:54:53;;;;;;;5.75;4.15;;;;;;;;;;4994077;28;20046;-87
2021/08/28 03:57:20;;;;;;;5.75;4.10;;;;;;;;;;4993944;28;20050;-84
2021/08/28 03:59:48;;;;;;;7.10;4.60;;;;;;;;;;4994248;28;20109;-84
2021/08/28 04:02:15;;;;;;;6.35;4.35;;;;;;;;;;4994050;28;20054;-84
2021/08/28 04:04:42;;;;;;;6.30;3.80;;;;;;;;;;4994321;28;20046;-85
2021/08/28 04:07:13;;;;;;;6.95;3.53;;;;;;;;;;4994271;28;20054;-84
2021/08/28 04:09:40;;;;;;;5.63;4.22;;;;;;;;;;4994473;28;20050;-84
2021/08/28 04:12:08;;;;;;;5.72;4.03;;;;;;;;;;4994147;28;20077;-84
2021/08/28 04:14:34;;;;;;;7.38;4.70;;;;;;;;;;4994013;28;20053;-85
2021/08/28 04:17:08;;;;;;;5.70;3.60;;;;;;;;;;4992876;28;20515;-84
2021/08/28 04:19:38;;;;;;;6.10;3.97;;;;;;;;;;4997931;28;20104;-84
2021/08/28 04:22:10;;;;;;;6.05;3.75;;;;;;;;;;4998741;28;20079;-84
2021/08/28 04:24:36;;;;;;;5.90;3.60;;;;;;;;;;4999886;28;20050;-85
2021/08/28 04:27:07;;;;;;;6.53;3.65;;;;;;;;;;4998371;28;20053;-84
2021/08/28 04:29:36;;;;;;;6.03;3.97;;;;;;;;;;4999110;28;20137;-85
2021/08/28 04:32:05;;;;;;;6.13;3.78;;;;;;;;;;4998727;28;20050;-86
2021/08/28 04:34:33;;;;;;;6.32;4.00;;;;;;;;;;4998126;28;20464;-85
2021/08/28 04:37:06;;;;;;;8.10;4.60;;;;;;;;;;4997520;28;20112;-84
2021/08/28 04:39:33;;;;;;;6.00;3.85;;;;;;;;;;4998269;28;20105;-85
2021/08/28 04:41:59;;;;;;;5.88;3.85;;;;;;;;;;4999337;28;20050;-84
2021/08/28 04:44:26;;;;;;;5.88;3.63;;;;;;;;;;4999194;28;20424;-84
2021/08/28 04:46:53;;;;;;;6.72;3.50;;;;;;;;;;5000255;28;20046;-85
2021/08/28 04:49:20;;;;;;;6.28;3.78;;;;;;;;;;5000414;28;20061;-84
2021/08/28 04:51:48;;;;;;;5.85;4.20;;;;;;;;;;4999824;28;20052;-84
2021/08/28 04:54:18;;;;;;;7.63;4.57;;;;;;;;;;4999419;28;20046;-85
2021/08/28 04:56:45;;;;;;;6.18;4.07;;;;;;;;;;4999536;28;20082;-84
2021/08/28 04:59:12;;;;;;;6.70;4.15;;;;;;;;;;4997706;28;20050;-84
2021/08/28 05:01:41;;;;;;;6.40;4.15;;;;;;;;;;4998152;28;20400;-84
2021/08/28 05:04:08;;;;;;;6.15;4.72;;;;;;;;;;4998752;28;20065;-85
2021/08/28 05:06:34;;;;;;;5.80;4.57;;;;;;;;;;5007557;28;20058;-84
2021/08/28 05:09:03;;;;;;;6.75;4.60;;;;;;;;;;5013254;28;20050;-84
2021/08/28 05:11:30;;;;;;;7.15;4.57;;;;;;;;;;5000445;28;20042;-85
2021/08/28 05:13:56;;;;;;;6.50;4.35;;;;;;;;;;5001388;28;20046;-85
2021/08/28 05:16:23;;;;;;;6.10;4.18;;;;;;;;;;4999867;28;20047;-84
2021/08/28 05:18:50;;;;;;;7.30;4.68;;;;;;;;;;4999637;28;20431;-85
2021/08/28 05:21:17;;;;;;;6.70;5.00;;;;;;;;;;4998918;28;20435;-85
2021/08/28 05:23:44;;;;;;;6.63;4.57;;;;;;;;;;4999436;28;20546;-86
2021/08/28 05:26:12;;;;;;;6.88;4.43;;;;;;;;;;4999226;28;20061;-85
2021/08/28 05:28:42;;;;;;;7.85;5.05;;;;;;;;;;4999222;28;20050;-85
2021/08/28 05:31:09;;;;;;;7.33;4.93;;;;;;;;;;5000306;28;20611;-84
2021/08/28 05:33:36;;;;;;;7.60;4.78;;;;;;;;;;5000016;28;20050;-85
2021/08/28 05:36:03;;;;;;;6.90;4.53;;;;;;;;;;4997083;28;20101;-85
2021/08/28 05:38:33;;;;;;;7.43;4.07;;;;;;;;;;4998056;28;20053;-84
2021/08/28 05:41:02;;;;;;;8.77;4.30;;;;;;;;;;4997813;28;20051;-85
2021/08/28 05:43:33;;;;;;;7.63;4.33;;;;;;;;;;4997780;28;20061;-84
2021/08/28 05:46:05;;;;;;;5.95;4.00;;;;;;;;;;4996779;28;20280;-84
2021/08/28 05:48:33;;;;;;;6.47;4.15;;;;;;;;;;4997968;28;20056;-85
2021/08/28 05:51:02;;;;;;;5.30;3.40;;;;;;;;;;4997392;28;20058;-85
2021/08/28 05:53:35;;;;;;;5.97;4.10;;;;;;;;;;4997664;28;20455;-85
2021/08/28 05:56:04;;;;;;;5.78;3.15;;;;;;;;;;5001738;28;20138;-85
2021/08/28 05:58:36;;;;;;;6.05;3.40;;;;;;;;;;5007803;28;20089;-86
2021/08/28 06:01:11;;;;;;;5.47;3.42;;;;;;;;;;5010951;28;20063;-85
2021/08/28 06:03:45;;;;;;;6.15;3.53;;;;;;;;;;4991406;28;20046;-86
2021/08/28 06:06:16;;;;;;;5.80;3.45;;;;;;;;;;4988982;28;20085;-85
2021/08/28 06:08:44;;;;;;;5.38;3.20;;;;;;;;;;4991175;28;20043;-85
2021/08/28 06:11:16;;;;;;;4.57;2.90;;;;;;;;;;4991327;28;20065;-84
2021/08/28 06:13:45;;;;;;;5.15;3.22;;;;;;;;;;5002478;28;20050;-86
2021/08/28 06:16:15;;;;;;;4.67;2.77;;;;;;;;;;5007879;28;20050;-85
2021/08/28 06:18:45;;;;;;;4.40;2.73;;;;;;;;;;5008306;28;20348;-86
2021/08/28 06:21:13;;;;;;;4.53;3.00;;;;;;;;;;5004025;28;20078;-85
2021/08/28 06:23:40;;;;;;;4.40;2.70;;;;;;;;;;4995437;28;20054;-84
2021/08/28 06:26:07;;;;;;;4.75;2.70;;;;;;;;;;4994916;28;20056;-84
2021/08/28 06:28:34;;;;;;;4.75;2.83;;;;;;;;;;5013539;28;20074;-83
2021/08/28 06:31:03;;;;;;;5.57;3.35;;;;;;;;;;5016715;28;20054;-83
2021/08/28 06:33:30;;;;;;;5.88;4.05;;;;;;;;;;5015200;28;20054;-83
2021/08/28 06:35:56;;;;;;;4.75;3.25;;;;;;;;;;5008557;28;20058;-86
2021/08/28 06:38:23;;;;;;;5.07;3.38;;;;;;;;;;5000824;28;20058;-84
2021/08/28 06:40:50;;;;;;;5.47;3.20;;;;;;;;;;4999756;28;20137;-84
2021/08/28 06:43:17;;;;;;;5.35;3.78;;;;;;;;;;5000188;28;20047;-84
2021/08/28 06:45:44;;;;;;;4.95;3.30;;;;;;;;;;5034907;23;20046;-85
2021/08/28 06:48:12;;;;;;;4.65;2.80;;;;;;;;;;5032332;28;20126;-82
2021/08/28 06:50:39;;;;;;;5.43;3.40;;;;;;;;;;5032645;28;20050;-82
2021/08/28 06:53:05;;;;;;;4.68;3.20;;;;;;;;;;5032371;28;20042;-83
2021/08/28 06:55:32;;;;;;;5.30;3.00;;;;;;;;;;5031286;28;20050;-83
2021/08/28 06:57:59;;;;;;;5.15;3.25;;;;;;;;;;5030194;28;20407;-82
2021/08/28 07:00:25;;;;;;;4.85;2.90;;;;;;;;;;5030745;28;20081;-83
2021/08/28 07:02:52;;;;;;;4.55;3.17;;;;;;;;;;5020673;28;20058;-83
2021/08/28 07:05:20;;;;;;;4.88;2.85;;;;;;;;;;5011010;28;20057;-83
2021/08/28 07:07:48;;;;;;;4.80;3.42;;;;;;;;;;5012197;28;20046;-83
2021/08/28 07:10:15;;;;;;;4.75;2.85;;;;;;;;;;5013552;28;20110;-84
2021/08/28 07:12:42;;;;;;;4.50;3.10;;;;;;;;;;5013563;28;20050;-83
2021/08/28 07:15:11;;;;;;;4.72;3.13;;;;;;;;;;5012594;28;20563;-82
2021/08/28 07:17:37;;;;;;;4.82;3.33;;;;;;;;;;5013416;28;20050;-84
2021/08/28 07:20:05;;;;;;;4.90;3.25;;;;;;;;;;5014775;28;20078;-83
2021/08/28 07:22:33;;;;;;;4.43;3.00;;;;;;;;;;5016505;28;20050;-83
2021/08/28 07:25:00;;;;;;;5.65;2.85;;;;;;;;;;5006927;28;20058;-84
2021/08/28 07:27:27;;;;;;;5.10;3.30;;;;;;;;;;5009273;28;20050;-83
2021/08/28 07:29:54;;;;;;;4.72;3.05;;;;;;;;;;5009407;28;20046;-84
2021/08/28 07:32:21;;;;;;;4.05;2.40;;;;;;;;;;5010199;28;20050;-83
2021/08/28 07:34:49;;;;;;;4.18;3.10;;;;;;;;;;5010647;28;20109;-84
2021/08/28 07:37:16;;;;;;;4.45;2.95;;;;;;;;;;5009473;28;20053;-84
2021/08/28 07:39:45;;;;;;;4.32;2.83;;;;;;;;;;5009650;28;20048;-84
2021/08/28 07:42:12;;;;;;;5.55;3.70;;;;;;;;;;5009194;28;20081;-84
2021/08/28 07:44:38;;;;;;;5.05;4.05;;;;;;;;;;5010236;28;20050;-83
2021/08/28 07:47:05;;;;;;;4.70;2.72;;;;;;;;;;5009753;28;20097;-84
2021/08/28 07:49:32;;;;;;;4.68;3.10;;;;;;;;;;5009309;28;20078;-84
2021/08/28 07:51:58;;;;;;;5.32;3.20;;;;;;;;;;5009606;28;20053;-84
2021/08/28 07:54:25;;;;;;;4.65;3.10;;;;;;;;;;5008949;28;20057;-84
2021/08/28 07:56:53;;;;;;;4.05;3.10;;;;;;;;;;5010010;28;20069;-84
2021/08/28 07:59:20;;;;;;;4.63;3.05;;;;;;;;;;5010121;28;20050;-84
2021/08/28 08:01:47;;;;;;;4.50;3.55;;;;;;;;;;5007458;28;20074;-84
2021/08/28 08:04:14;;;;;;;4.30;3.17;;;;;;;;;;4990542;28;20071;-85
2021/08/28 08:06:41;;;;;;;5.60;3.83;;;;;;;;;;4990220;28;20050;-84
2021/08/28 08:09:07;;;;;;;4.90;3.50;;;;;;;;;;4990808;28;20508;-83
2021/08/28 08:11:34;;;;;;;6.20;4.72;;;;;;;;;;4990672;28;20054;-82
2021/08/28 08:14:03;;;;;;;7.47;4.68;;;;;;;;;;5004771;28;20065;-84
2021/08/28 08:16:30;;;;;;;5.45;4.20;;;;;;;;;;5009293;28;20050;-83
2021/08/28 08:18:56;;;;;;;4.72;3.67;;;;;;;;;;5010392;28;20051;-84
2021/08/28 08:21:23;;;;;;;4.47;3.40;;;;;;;;;;5009579;28;20077;-84
2021/08/28 08:23:50;;;;;;;6.10;4.65;;;;;;;;;;5009484;28;20652;-83
2021/08/28 08:26:16;;;;;;;4.03;2.78;;;;;;;;;;5008666;28;20153;-82
2021/08/28 08:28:43;;;;;;;3.75;2.47;;;;;;;;;;5010653;28;20062;-84
2021/08/28 08:31:11;;;;;;;4.88;2.97;;;;;;;;;;5011473;28;20396;-84
2021/08/28 08:33:38;;;;;;;4.15;2.88;;;;;;;;;;5010563;28;20113;-84
2021/08/28 08:36:06;;;;;;;4.30;2.70;;;;;;;;;;5008280;28;20137;-83
2021/08/28 08:38:33;;;;;;;4.15;2.83;;;;;;;;;;5007702;28;20047;-84
2021/08/28 08:41:00;;;;;;;4.38;2.33;;;;;;;;;;5008726;28;20047;-84
2021/08/28 08:43:27;;;;;;;3.72;2.50;;;;;;;;;;5007722;28;20416;-85
2021/08/28 08:45:54;;;;;;;4.35;2.90;;;;;;;;;;5008129;28;20050;-84
2021/08/28 08:48:23;;;;;;;3.55;2.40;;;;;;;;;;5008508;28;20050;-83
2021/08/28 08:50:51;;;;;;;3.20;2.28;;;;;;;;;;5009325;28;20046;-84
2021/08/28 08:53:18;;;;;;;5.07;3.97;;;;;;;;;;5008579;28;20046;-83
2021/08/28 08:55:45;;;;;;;4.35;2.53;;;;;;;;;;5007901;28;20047;-84
2021/08/28 08:58:13;;;;;;;4.60;2.97;;;;;;;;;;5007749;28;20178;-82
2021/08/28 09:00:39;;;;;;;4.25;2.60;;;;;;;;;;5009123;28;20047;-83
2021/08/28 09:03:06;;;;;;;4.03;2.85;;;;;;;;;;4995188;28;20035;-83
2021/08/28 09:05:35;;;;;;;5.45;3.05;;;;;;;;;;4993789;28;20042;-85
2021/08/28 09:08:01;;;;;;;3.92;2.50;;;;;;;;;;4992729;28;20115;-82
2021/08/28 09:10:28;;;;;;;4.45;2.60;;;;;;;;;;4988646;28;20559;-81
2021/08/28 09:12:55;;;;;;;3.65;2.38;;;;;;;;;;4993893;28;20046;-83
2021/08/28 09:15:22;;;;;;;5.15;3.30;;;;;;;;;;5003450;28;20427;-83
2021/08/28 09:18:01;;;;;;;4.10;2.70;;;;;;;;;;5004147;28;20073;-85
2021/08/28 09:20:28;;;;;;;3.78;2.42;;;;;;;;;;5002413;28;20054;-83
2021/08/28 09:23:04;;;;;;;4.32;2.58;;;;;;;;;;5003910;28;20109;-84
2021/08/28 09:25:31;;;;;;;3.85;2.63;;;;;;;;;;5003008;28;20051;-85
2021/08/28 09:27:58;;;;;;;3.25;2.20;;;;;;;;;;5002338;28;20500;-86
2021/08/28 09:30:27;;;;;;;4.45;2.63;;;;;;;;;;5001219;28;20194;-86
2021/08/28 09:32:56;;;;;;;4.03;2.28;;;;;;;;;;5003071;28;20110;-85
2021/08/28 09:35:25;;;;;;;3.97;2.28;;;;;;;;;;4998930;28;20043;-84
2021/08/28 09:37:54;;;;;;;4.10;2.40;;;;;;;;;;5009988;28;20046;-85
2021/08/28 09:40:25;;;;;;;4.05;2.50;;;;;;;;;;5018306;28;20504;-84
2021/08/28 09:43:01;;;;;;;5.93;3.08;;;;;;;;;;5004685;28;20086;-86
2021/08/28 09:45:28;;;;;;;4.40;2.90;;;;;;;;;;5000151;28;20042;-84
2021/08/28 09:47:56;;;;;;;4.40;2.47;;;;;;;;;;4997863;28;20054;-83
2021/08/28 09:50:28;;;;;;;4.68;2.50;;;;;;;;;;4998392;28;20079;-80
2021/08/28 09:52:55;;;;;;;3.40;2.30;;;;;;;;;;4998259;28;20042;-81
2021/08/28 09:55:24;;;;;;;3.28;2.13;;;;;;;;;;4998359;28;20054;-81
2021/08/28 09:57:51;;;;;;;2.55;1.90;;;;;;;;;;5000197;28;20086;-82
2021/08/28 10:00:18;;;;;;;4.07;2.47;;;;;;;;;;5004475;28;20046;-83
2021/08/28 10:02:59;;;;;;;3.20;2.13;;;;;;;;;;4998064;28;20051;-81
2021/08/28 10:05:27;;;;;;;3.97;1.80;;;;;;;;;;4988789;28;20058;-82
2021/08/28 10:07:57;;;;;;;2.97;2.10;;;;;;;;;;4993660;28;20129;-80
2021/08/28 10:10:26;;;;;;;3.20;1.77;;;;;;;;;;4991766;28;20488;-79
2021/08/28 10:12:54;;;;;;;2.67;1.90;;;;;;;;;;4998559;28;20061;-80
2021/08/28 10:15:22;;;;;;;3.85;2.10;;;;;;;;;;4983296;28;20240;-79
2021/08/28 10:17:50;;;;;;;3.40;1.70;;;;;;;;;;4984756;28;20408;-80
2021/08/28 10:20:18;;;;;;;3.00;1.77;;;;;;;;;;4983486;28;20051;-81
2021/08/28 10:22:47;;;;;;;2.63;1.75;;;;;;;;;;4983126;28;20141;-81
2021/08/28 10:25:15;;;;;;;2.47;1.52;;;;;;;;;;4980101;28;20484;-82
2021/08/28 10:27:43;;;;;;;2.72;1.55;;;;;;;;;;4980121;28;20571;-81
2021/08/28 10:30:12;;;;;;;2.95;1.80;;;;;;;;;;4979358;28;20047;-83
2021/08/28 10:32:39;;;;;;;7.35;5.05;;;;;;;;;;4981395;28;20101;-82
2021/08/28 10:35:07;;;;;;;2.80;1.75;;;;;;;;;;4979753;28;20043;-80
2021/08/28 10:37:34;;;;;;;3.80;1.67;;;;;;;;;;4984892;28;20047;-80
2021/08/28 10:40:02;;;;;;;3.70;2.10;;;;;;;;;;4986531;28;20480;-81
2021/08/28 10:42:32;;;;;;;3.40;2.30;;;;;;;;;;4986786;28;20047;-81
2021/08/28 10:48:22;;;;;;;3.38;1.70;;;;;;;;;;4999265;28;20135;-82
2021/08/28 10:50:52;;;;;;;2.13;1.40;;;;;;;;;;5005816;28;20105;-82
2021/08/28 10:53:19;;;;;;;1.75;1.35;;;;;;;;;;5006776;28;20051;-83
2021/08/28 10:55:48;;;;;;;2.10;1.38;;;;;;;;;;5006924;28;20054;-83
2021/08/28 10:58:18;;;;;;;2.67;1.60;;;;;;;;;;5006778;28;20066;-82
2021/08/28 11:00:49;;;;;;;2.88;1.58;;;;;;;;;;5006598;28;20047;-82
2021/08/28 11:06:39;;;;;;;2.75;1.33;;;;;;;;;;5003593;28;20065;-83
2021/08/28 11:12:28;;;;;;;2.13;0.95;;;;;;;;;;5004626;28;20110;-82
2021/08/28 11:14:54;;;;;;;6.03;3.00;;;;;;;;;;5006312;28;20046;-82
2021/08/28 11:17:36;;;;;;;3.60;1.48;;;;;;;;;;5004919;28;20092;-82
2021/08/28 11:20:24;;;;;;;4.97;2.30;;;;;;;;;;5005154;28;20069;-82
2021/08/28 11:22:53;;;;;;;2.50;1.27;;;;;;;;;;5004250;28;20081;-82
2021/08/28 11:25:25;;;;;;;1.35;0.90;;;;;;;;;;5005187;28;20047;-82
2021/08/28 11:27:56;;;;;;;1.30;0.70;;;;;;;;;;5005242;28;20097;-83
2021/08/28 11:31:02;;;;;;;1.40;0.73;;;;;;;;;;5005167;28;20082;-82
2021/08/28 11:33:31;;;;;;;1.35;0.80;;;;;;;;;;4997216;28;20538;-83
2021/08/28 11:36:00;;;;;;;0.95;0.70;;;;;;;;;;5005582;28;20042;-83
2021/08/28 11:38:37;;;;;;;2.85;1.40;;;;;;;;;;5005424;28;20502;-82
2021/08/28 11:41:07;;;;;;;2.10;0.70;;;;;;;;;;5005246;28;20046;-82
2021/08/28 11:43:36;;;;;;;1.17;1.00;;;;;;;;;;5004677;28;20500;-82
2021/08/28 11:46:09;;;;;;;2.05;0.95;;;;;;;;;;5004375;28;20058;-82
2021/08/28 11:51:59;;;;;;;0.93;0.70;;;;;;;;;;5006975;28;20558;-83
2021/08/28 11:54:29;;;;;;;1.48;0.90;;;;;;;;;;5006122;28;20050;-83
2021/08/28 11:56:57;;;;;;;1.08;0.77;;;;;;;;;;5005344;28;20076;-83
2021/08/28 11:59:34;;;;;;;2.35;1.00;;;;;;;;;;5005829;28;20047;-83
2021/08/28 12:02:00;;;;;;;3.22;2.20;;;;;;;;;;5005498;28;20065;-82
2021/08/28 12:04:27;;;;;;;1.75;1.05;;;;;;;;;;5005586;28;20053;-83
2021/08/28 12:06:56;;;;;;;2.47;0.88;;;;;;;;;;5005513;28;20050;-83
2021/08/28 12:09:25;;;;;;;1.15;0.80;;;;;;;;;;5005422;28;20057;-82
2021/08/28 12:11:55;;;;;;;1.17;0.80;;;;;;;;;;5004390;28;20058;-82
2021/08/28 12:14:25;;;;;;;1.38;0.80;;;;;;;;;;4988544;28;20050;-83
2021/08/28 12:16:52;;;;;;;1.08;0.80;;;;;;;;;;4985487;28;20055;-82
2021/08/28 12:19:21;;;;;;;1.58;0.80;;;;;;;;;;4985506;28;20053;-83
2021/08/28 12:21:50;;;;;;;1.02;0.70;;;;;;;;;;4985639;28;20207;-82
2021/08/28 12:24:20;;;;;;;1.63;0.80;;;;;;;;;;4985729;28;20416;-82
2021/08/28 12:26:51;;;;;;;3.22;1.75;;;;;;;;;;4985189;28;20051;-83
2021/08/28 12:29:24;;;;;;;2.22;1.38;;;;;;;;;;4985801;28;20050;-83
2021/08/28 12:31:58;;;;;;;1.35;0.80;;;;;;;;;;4985846;28;20051;-83
2021/08/28 12:34:26;;;;;;;1.00;0.70;;;;;;;;;;4984670;28;20054;-82
2021/08/28 12:36:53;;;;;;;1.02;0.70;;;;;;;;;;4985066;28;20113;-82
2021/08/28 12:39:20;;;;;;;2.05;1.00;;;;;;;;;;4987359;28;20095;-83
2021/08/28 12:41:46;;;;;;;1.85;1.35;;;;;;;;;;4989163;28;20047;-83
2021/08/28 12:44:16;;;;;;;3.78;1.88;;;;;;;;;;4990473;28;20432;-82
2021/08/28 12:46:48;;;;;;;2.95;1.40;;;;;;;;;;4986645;28;20054;-84
2021/08/28 12:49:18;;;;;;;1.75;0.88;;;;;;;;;;4985409;28;20047;-84
2021/08/28 12:51:59;;;;;;;3.40;1.75;;;;;;;;;;4984712;28;20054;-84
2021/08/28 12:54:30;;;;;;;4.72;2.20;;;;;;;;;;4985336;28;20057;-84
2021/08/28 12:57:02;;;;;;;0.68;0.68;;;;;;;;;;4989479;28;20189;-80
2021/08/28 12:59:30;;;;;;;1.25;0.70;;;;;;;;;;4992116;28;20058;-82
2021/08/28 13:01:59;;;;;;;2.70;1.63;;;;;;;;;;4999784;28;20046;-84
2021/08/28 13:04:31;;;;;;;1.45;0.80;;;;;;;;;;5013254;28;20129;-82
2021/08/28 13:07:12;;;;;;;1.45;0.80;;;;;;;;;;5004954;28;20046;-82
2021/08/28 13:09:56;;;;;;;1.67;0.90;;;;;;;;;;5001130;28;20046;-83
2021/08/28 13:12:40;;;;;;;3.08;1.20;;;;;;;;;;5007589;28;20042;-83
2021/08/28 13:15:08;;;;;;;1.35;0.82;;;;;;;;;;4984837;28;20108;-84
2021/08/28 13:17:38;;;;;;;4.38;2.38;;;;;;;;;;4983136;28;20070;-83
2021/08/28 13:20:06;;;;;;;;;;;;;;;;;;4983515;28;20078;-84
2021/08/28 13:22:35;;;;;;;1.75;0.80;;;;;;;;;;4982285;28;19926;-83
2021/08/28 13:25:02;;;;;;;2.05;0.98;;;;;;;;;;4982805;28;20303;-84
2021/08/28 13:27:30;;;;;;;1.27;1.00;;;;;;;;;;4984677;28;20093;-84
2021/08/28 13:30:13;;;;;;;1.35;1.02;;;;;;;;;;4984463;28;20138;-84
2021/08/28 13:32:53;;;;;;;0.75;0.68;;;;;;;;;;4983716;28;20062;-84
2021/08/28 13:35:20;;;;;;;;;;;;;;;;;;4982559;28;20484;-82
2021/08/28 13:37:47;;;;;;;2.88;1.83;;;;;;;;;;4982455;28;19922;-82
2021/08/28 13:40:14;;;;;;;1.30;1.13;;;;;;;;;;4982379;28;20450;-83
2021/08/28 13:42:41;;;;;;;0.95;0.70;;;;;;;;;;4981977;28;20089;-82
2021/08/28 13:45:08;;;;;;;1.20;0.60;;;;;;;;;;4981225;28;20078;-84
2021/08/28 13:47:35;;;;;;;1.10;0.77;;;;;;;;;;4983351;28;20054;-82
2021/08/28 13:50:03;;;;;;;1.75;0.88;;;;;;;;;;4982821;28;20148;-84
2021/08/28 13:52:30;;;;;;;1.27;0.90;;;;;;;;;;4981396;28;20051;-83
2021/08/28 13:54:57;;;;;;;1.92;0.95;;;;;;;;;;4981872;28;20057;-81
2021/08/28 13:57:23;;;;;;;1.60;0.90;;;;;;;;;;4981746;28;20085;-85
2021/08/28 13:59:50;;;;;;;1.30;0.98;;;;;;;;;;4980000;28;20137;-84
2021/08/28 14:02:17;;;;;;;1.10;0.90;;;;;;;;;;4981809;28;20078;-83
2021/08/28 14:04:44;;;;;;;1.42;1.00;;;;;;;;;;4981099;28;20058;-84
2021/08/28 14:07:12;;;;;;;1.80;1.20;;;;;;;;;;4994658;28;20082;-82
2021/08/28 14:09:38;;;;;;;2.53;1.50;;;;;;;;;;4998442;28;20058;-83
2021/08/28 14:12:06;;;;;;;2.30;1.13;;;;;;;;;;4998526;28;20047;-82
2021/08/28 14:14:32;;;;;;;2.10;1.20;;;;;;;;;;5017827;28;20053;-81
2021/08/28 14:16:59;;;;;;;1.85;1.00;;;;;;;;;;5011975;28;20473;-83
2021/08/28 14:19:26;;;;;;;1.70;1.10;;;;;;;;;;5001304;28;20046;-83
2021/08/28 14:21:53;;;;;;;1.30;1.00;;;;;;;;;;5000792;28;20058;-84
2021/08/28 14:24:22;;;;;;;1.40;1.10;;;;;;;;;;5000184;28;20050;-83
2021/08/28 14:26:49;;;;;;;2.17;1.02;;;;;;;;;;4999625;28;20518;-83
2021/08/28 14:29:15;;;;;;;2.75;1.15;;;;;;;;;;5000153;28;20054;-83
2021/08/28 14:31:43;;;;;;;1.88;1.13;;;;;;;;;;5000294;28;20063;-83
2021/08/28 14:34:09;;;;;;;2.88;1.50;;;;;;;;;;4999843;28;20096;-84
2021/08/28 14:36:36;;;;;;;2.85;1.10;;;;;;;;;;4999212;28;20069;-83
2021/08/28 14:39:05;;;;;;;2.22;1.40;;;;;;;;;;4999854;28;20474;-82
2021/08/28 14:41:33;;;;;;;2.13;1.17;;;;;;;;;;4999915;28;20539;-83
2021/08/28 14:44:02;;;;;;;2.25;1.38;;;;;;;;;;4999404;28;20074;-84
2021/08/28 14:46:29;;;;;;;2.22;1.20;;;;;;;;;;4999257;28;20051;-84
2021/08/28 14:48:55;;;;;;;1.90;1.20;;;;;;;;;;4999640;28;20050;-84
2021/08/28 14:51:22;;;;;;;2.88;1.67;;;;;;;;;;5000502;28;20046;-84
2021/08/28 14:53:50;;;;;;;2.20;1.42;;;;;;;;;;4999704;28;20463;-83
2021/08/28 14:56:17;;;;;;;3.08;1.30;;;;;;;;;;4997958;28;20101;-83
2021/08/28 14:58:45;;;;;;;2.72;1.58;;;;;;;;;;4998262;28;20047;-83
2021/08/28 15:01:12;;;;;;;1.58;1.05;;;;;;;;;;5001539;28;20057;-84
2021/08/28 15:03:39;;;;;;;2.63;1.40;;;;;;;;;;4980959;28;20078;-83
2021/08/28 15:06:06;;;;;;;3.70;1.40;;;;;;;;;;4977680;28;20078;-84
2021/08/28 15:08:33;;;;;;;2.33;1.50;;;;;;;;;;4978656;28;20043;-82
2021/08/28 15:11:00;;;;;;;1.90;1.20;;;;;;;;;;4979296;28;20085;-83
2021/08/28 15:13:27;;;;;;;2.10;1.40;;;;;;;;;;4988766;28;20081;-83